createdAt,value
2019-01-16T00:01:40.692Z,5.38
2019-01-16T00:04:37.917Z,5.30
2019-01-16T00:07:29.036Z,5.34
2019-01-16T00:10:24.895Z,5.27
2019-01-16T00:13:04.769Z,5.34
2019-01-16T00:15:47.993Z,5.26
2019-01-16T00:18:36.570Z,5.32
2019-01-16T00:21:20.103Z,5.24
2019-01-16T00:24:06.807Z,5.21
2019-01-16T00:27:05.134Z,5.11
2019-01-16T00:30:00.034Z,5.07
2019-01-16T00:32:46.974Z,5.16
2019-01-16T00:35:41.473Z,5.20
2019-01-16T00:38:32.344Z,5.09
2019-01-16T00:41:14.915Z,5.19
2019-01-16T00:43:56.214Z,5.15
2019-01-16T00:46:43.299Z,5.15
2019-01-16T00:49:24.431Z,5.01
2019-01-16T00:52:18.544Z,5.10
2019-01-16T00:55:05.956Z,5.00
2019-01-16T00:58:00.144Z,5.04
2019-01-16T01:00:44.853Z,5.12
2019-01-16T01:03:32.677Z,5.11
2019-01-16T01:06:17.863Z,5.02
2019-01-16T01:09:07.306Z,5.05
2019-01-16T01:11:55.392Z,4.96
2019-01-16T01:14:46.110Z,5.02
2019-01-16T01:17:29.867Z,4.94
2019-01-16T01:20:14.059Z,4.94
2019-01-16T01:23:14.461Z,4.99
2019-01-16T01:26:08.257Z,4.86
2019-01-16T01:28:55.157Z,4.96
2019-01-16T01:31:46.631Z,4.93
2019-01-16T01:34:23.327Z,4.88
2019-01-16T01:37:11.219Z,4.79
2019-01-16T01:40:02.129Z,4.79
2019-01-16T01:43:02.479Z,4.82
2019-01-16T01:45:58.876Z,4.76
2019-01-16T01:48:53.408Z,4.85
2019-01-16T01:51:41.361Z,4.87
2019-01-16T01:54:35.096Z,4.76
2019-01-16T01:57:21.875Z,4.70
2019-01-16T02:00:22.020Z,4.66
2019-01-16T02:03:18.945Z,4.70
2019-01-16T02:06:09.824Z,4.72
2019-01-16T02:08:57.728Z,4.75
2019-01-16T02:11:44.195Z,4.69
2019-01-16T02:14:37.888Z,4.69
2019-01-16T02:17:32.203Z,4.78
2019-01-16T02:20:20.172Z,4.68
2019-01-16T02:23:23.294Z,4.68
2019-01-16T02:26:18.356Z,4.70
2019-01-16T02:29:05.068Z,4.74
2019-01-16T02:31:57.770Z,4.66
2019-01-16T02:34:54.948Z,4.73
2019-01-16T02:37:54.665Z,4.67
2019-01-16T02:40:31.771Z,4.60
2019-01-16T02:43:21.551Z,4.47
2019-01-16T02:46:10.136Z,4.55
2019-01-16T02:48:55.825Z,4.63
2019-01-16T02:51:38.890Z,4.45
2019-01-16T02:54:31.641Z,4.47
2019-01-16T02:57:24.900Z,4.59
2019-01-16T03:00:05.796Z,4.62
2019-01-16T03:02:53.630Z,4.63
2019-01-16T03:05:50.989Z,4.63
2019-01-16T03:08:39.739Z,4.61
2019-01-16T03:11:18.098Z,4.61
2019-01-16T03:14:05.916Z,4.46
2019-01-16T03:16:50.727Z,4.42
2019-01-16T03:19:37.533Z,4.55
2019-01-16T03:22:18.028Z,4.70
2019-01-16T03:25:04.615Z,4.63
2019-01-16T03:27:58.214Z,4.59
2019-01-16T03:30:58.075Z,4.50
2019-01-16T03:33:46.027Z,4.50
2019-01-16T03:36:43.284Z,4.46
2019-01-16T03:39:31.086Z,4.33
2019-01-16T03:42:17.940Z,4.39
2019-01-16T03:44:56.072Z,4.36
2019-01-16T03:47:43.166Z,4.49
2019-01-16T03:50:40.649Z,4.37
2019-01-16T03:53:30.972Z,4.43
2019-01-16T03:56:17.586Z,4.58
2019-01-16T03:59:12.219Z,4.40
2019-01-16T04:02:12.564Z,4.42
2019-01-16T04:05:06.390Z,4.35
2019-01-16T04:07:50.715Z,4.47
2019-01-16T04:10:28.238Z,4.37
2019-01-16T04:13:18.929Z,4.33
2019-01-16T04:16:22.009Z,4.34
2019-01-16T04:19:10.090Z,4.32
2019-01-16T04:21:51.797Z,4.40
2019-01-16T04:24:46.069Z,4.42
2019-01-16T04:27:28.308Z,4.42
2019-01-16T04:30:14.610Z,4.29
2019-01-16T04:33:20.902Z,4.35
2019-01-16T04:36:07.541Z,4.40
2019-01-16T04:38:44.907Z,4.44
2019-01-16T04:41:38.506Z,4.32
2019-01-16T04:44:25.474Z,4.23
2019-01-16T04:47:28.383Z,4.18
2019-01-16T04:50:10.137Z,4.27
2019-01-16T04:53:02.013Z,4.26
2019-01-16T04:55:48.541Z,4.24
2019-01-16T04:58:33.187Z,4.19
2019-01-16T05:01:14.451Z,4.15
2019-01-16T05:04:00.871Z,4.11
2019-01-16T05:06:58.138Z,4.26
2019-01-16T05:09:40.881Z,4.23
2019-01-16T05:12:18.401Z,4.21
2019-01-16T05:14:58.752Z,4.26
2019-01-16T05:17:49.370Z,4.34
2019-01-16T05:20:44.378Z,4.39
2019-01-16T05:23:23.736Z,4.35
2019-01-16T05:26:29.859Z,4.14
2019-01-16T05:29:15.829Z,4.22
2019-01-16T05:32:01.923Z,4.22
2019-01-16T05:35:01.882Z,4.12
2019-01-16T05:37:54.476Z,4.22
2019-01-16T05:40:41.112Z,4.07
2019-01-16T05:43:28.992Z,4.21
2019-01-16T05:46:15.580Z,3.99
2019-01-16T05:49:09.906Z,4.16
2019-01-16T05:51:56.692Z,4.13
2019-01-16T05:54:47.545Z,4.15
2019-01-16T05:57:34.152Z,3.83
2019-01-16T06:00:25.211Z,3.79
2019-01-16T06:03:14.486Z,3.82
2019-01-16T06:06:01.422Z,3.68
2019-01-16T06:08:57.749Z,3.81
2019-01-16T06:11:44.474Z,4.12
2019-01-16T06:14:32.290Z,3.90
2019-01-16T06:17:29.462Z,3.95
2019-01-16T06:20:23.325Z,3.88
2019-01-16T06:23:14.345Z,3.79
2019-01-16T06:25:52.932Z,3.76
2019-01-16T06:28:31.508Z,3.67
2019-01-16T06:31:17.933Z,3.66
2019-01-16T06:34:18.134Z,3.69
2019-01-16T06:37:08.804Z,3.63
2019-01-16T06:39:59.479Z,3.69
2019-01-16T06:42:53.404Z,3.64
2019-01-16T06:45:39.717Z,3.59
2019-01-16T06:48:33.803Z,3.54
2019-01-16T06:51:07.975Z,3.55
2019-01-16T06:53:52.942Z,3.36
2019-01-16T06:56:32.307Z,3.20
2019-01-16T06:59:18.090Z,3.02
2019-01-16T07:02:04.760Z,3.03
2019-01-16T07:04:51.232Z,2.75
2019-01-16T07:07:40.836Z,2.72
2019-01-16T07:10:18.136Z,2.70
2019-01-16T07:12:55.415Z,2.71
2019-01-16T07:15:49.630Z,2.48
2019-01-16T07:18:33.786Z,2.53
2019-01-16T07:21:24.731Z,2.60
2019-01-16T07:24:18.536Z,2.53
2019-01-16T07:27:03.283Z,2.38
2019-01-16T07:29:56.928Z,2.21
2019-01-16T07:32:37.130Z,2.32
2019-01-16T07:35:25.650Z,2.46
2019-01-16T07:38:22.296Z,2.58
2019-01-16T07:41:02.941Z,2.39
2019-01-16T07:43:51.870Z,2.42
2019-01-16T07:46:33.508Z,2.20
2019-01-16T07:49:19.981Z,2.32
2019-01-16T07:52:12.473Z,2.12
2019-01-16T07:54:58.904Z,2.08
2019-01-16T07:57:35.275Z,2.03
2019-01-16T08:00:33.634Z,2.11
2019-01-16T08:03:16.720Z,2.23
2019-01-16T08:06:03.314Z,2.26
2019-01-16T08:09:02.542Z,2.19
2019-01-16T08:11:43.226Z,2.12
2019-01-16T08:14:30.011Z,2.19
2019-01-16T08:17:30.213Z,2.24
2019-01-16T08:20:24.711Z,2.25
2019-01-16T08:23:09.749Z,2.42
2019-01-16T08:26:09.838Z,2.61
2019-01-16T08:28:50.282Z,2.55
2019-01-16T08:31:38.233Z,2.68
2019-01-16T08:34:26.209Z,2.75
2019-01-16T08:37:23.617Z,2.96
2019-01-16T08:40:10.372Z,3.24
2019-01-16T08:42:56.791Z,3.42
2019-01-16T08:45:51.922Z,3.33
2019-01-16T08:48:38.755Z,3.45
2019-01-16T08:51:21.164Z,3.54
2019-01-16T08:54:08.110Z,3.54
2019-01-16T08:56:45.595Z,3.64
2019-01-16T08:59:35.711Z,3.84
2019-01-16T09:02:29.882Z,3.72
2019-01-16T09:05:24.195Z,3.75
2019-01-16T09:08:12.140Z,3.66
2019-01-16T09:11:09.583Z,3.76
2019-01-16T09:14:00.655Z,3.87
2019-01-16T09:16:42.186Z,3.90
2019-01-16T09:19:25.590Z,3.81
2019-01-16T09:22:12.250Z,3.91
2019-01-16T09:24:59.127Z,4.09
2019-01-16T09:27:58.128Z,3.96
2019-01-16T09:30:45.964Z,4.07
2019-01-16T09:33:32.925Z,4.13
2019-01-16T09:36:12.671Z,4.17
2019-01-16T09:38:59.639Z,4.46
2019-01-16T09:41:46.957Z,4.38
2019-01-16T09:44:28.956Z,4.58
2019-01-16T09:47:15.901Z,4.54
2019-01-16T09:50:02.943Z,4.78
2019-01-16T09:53:03.392Z,4.62
2019-01-16T09:55:50.367Z,4.42
2019-01-16T09:58:41.274Z,4.43
2019-01-16T10:01:32.104Z,4.46
2019-01-16T10:04:18.914Z,4.52
2019-01-16T10:06:59.510Z,4.51
2019-01-16T10:09:40.409Z,4.48
2019-01-16T10:12:27.116Z,4.60
2019-01-16T10:15:16.281Z,4.59
2019-01-16T10:18:19.602Z,4.63
2019-01-16T10:21:09.626Z,4.83
2019-01-16T10:24:06.885Z,4.91
2019-01-16T10:27:02.627Z,5.02
2019-01-16T10:30:05.699Z,5.14
2019-01-16T10:32:54.484Z,5.18
2019-01-16T10:36:00.964Z,5.23
2019-01-16T10:38:50.830Z,5.26
2019-01-16T10:41:47.760Z,5.33
2019-01-16T10:44:45.053Z,5.50
2019-01-16T10:47:26.525Z,5.30
2019-01-16T10:50:27.292Z,4.95
2019-01-16T10:53:18.082Z,5.10
2019-01-16T10:56:09.005Z,5.02
2019-01-16T10:58:51.822Z,5.15
2019-01-16T11:01:39.726Z,5.17
2019-01-16T11:04:30.810Z,5.08
2019-01-16T11:07:10.926Z,5.30
2019-01-16T11:09:55.233Z,5.33
2019-01-16T11:12:54.072Z,5.44
2019-01-16T11:15:32.581Z,5.60
2019-01-16T11:18:29.810Z,5.61
2019-01-16T11:21:17.806Z,5.61
2019-01-16T11:24:05.113Z,5.28
2019-01-16T11:26:52.013Z,5.58
2019-01-16T11:29:29.150Z,5.93
2019-01-16T11:32:32.292Z,5.90
2019-01-16T11:35:16.715Z,5.92
2019-01-16T11:38:07.039Z,5.94
2019-01-16T11:40:57.770Z,5.93
2019-01-16T11:43:41.962Z,6.10
2019-01-16T11:46:32.646Z,6.28
2019-01-16T11:49:25.884Z,6.30
2019-01-16T11:52:12.388Z,6.31
2019-01-16T11:54:59.202Z,6.40
2019-01-16T11:58:05.696Z,6.46
2019-01-16T12:00:49.781Z,6.40
2019-01-16T12:03:38.193Z,6.27
2019-01-16T12:06:20.669Z,6.40
2019-01-16T12:09:07.207Z,6.67
2019-01-16T12:12:07.286Z,6.66
2019-01-16T12:14:54.130Z,6.64
2019-01-16T12:17:51.120Z,6.27
2019-01-16T12:20:39.571Z,6.20
2019-01-16T12:23:34.901Z,6.22
2019-01-16T12:26:15.061Z,6.20
2019-01-16T12:28:57.803Z,6.20
2019-01-16T12:31:44.232Z,6.14
2019-01-16T12:34:30.795Z,6.29
2019-01-16T12:37:16.538Z,6.43
2019-01-16T12:40:03.458Z,6.70
2019-01-16T12:42:57.351Z,6.50
2019-01-16T12:45:35.254Z,6.40
2019-01-16T12:48:32.299Z,6.50
2019-01-16T12:51:33.596Z,6.54
2019-01-16T12:54:17.981Z,6.56
2019-01-16T12:57:08.723Z,6.52
2019-01-16T12:59:56.128Z,6.67
2019-01-16T13:02:41.103Z,6.77
2019-01-16T13:05:28.398Z,6.73
2019-01-16T13:08:19.000Z,6.68
2019-01-16T13:11:06.360Z,6.43
2019-01-16T13:13:49.216Z,6.53
2019-01-16T13:16:37.076Z,6.64
2019-01-16T13:19:17.026Z,6.69
2019-01-16T13:22:00.049Z,6.65
2019-01-16T13:24:41.979Z,6.72
2019-01-16T13:27:24.593Z,6.46
2019-01-16T13:30:11.690Z,6.43
2019-01-16T13:32:58.671Z,6.50
2019-01-16T13:35:35.215Z,6.34
2019-01-16T13:38:12.232Z,6.44
2019-01-16T13:40:59.469Z,6.65
2019-01-16T13:43:48.100Z,6.77
2019-01-16T13:46:31.896Z,6.56
2019-01-16T13:49:18.673Z,6.56
2019-01-16T13:52:18.909Z,6.74
2019-01-16T13:54:55.424Z,6.79
2019-01-16T13:57:42.249Z,6.64
2019-01-16T14:00:23.929Z,6.43
2019-01-16T14:03:08.107Z,6.26
2019-01-16T14:06:14.510Z,6.22
2019-01-16T14:09:17.871Z,6.25
2019-01-16T14:12:04.500Z,6.39
2019-01-16T14:15:10.879Z,6.56
2019-01-16T14:17:59.427Z,6.37
2019-01-16T14:20:47.240Z,6.35
2019-01-16T14:23:41.343Z,6.21
2019-01-16T14:26:29.901Z,6.20
2019-01-16T14:29:16.916Z,6.27
2019-01-16T14:32:03.705Z,6.47
2019-01-16T14:35:00.482Z,6.24
2019-01-16T14:37:53.471Z,6.22
2019-01-16T14:40:40.345Z,6.25
2019-01-16T14:43:22.505Z,6.14
2019-01-16T14:46:22.765Z,6.30
2019-01-16T14:49:09.585Z,6.51
2019-01-16T14:51:59.662Z,6.40
2019-01-16T14:54:41.593Z,6.44
2019-01-16T14:57:22.555Z,6.58
2019-01-16T15:00:13.342Z,6.66
2019-01-16T15:02:59.884Z,6.53
2019-01-16T15:05:53.869Z,6.40
2019-01-16T15:08:40.903Z,6.16
2019-01-16T15:11:21.107Z,5.96
2019-01-16T15:14:15.058Z,5.88
2019-01-16T15:17:03.026Z,5.87
2019-01-16T15:19:49.730Z,5.79
2019-01-16T15:22:32.789Z,5.72
2019-01-16T15:25:13.170Z,5.46
2019-01-16T15:28:00.963Z,5.58
2019-01-16T15:30:44.054Z,5.42
2019-01-16T15:33:32.009Z,5.33
2019-01-16T15:36:35.084Z,5.23
2019-01-16T15:39:33.541Z,5.15
2019-01-16T15:42:20.501Z,4.99
2019-01-16T15:45:09.011Z,4.99
2019-01-16T15:47:53.157Z,4.81
2019-01-16T15:50:39.793Z,4.87
2019-01-16T15:53:25.270Z,4.69
2019-01-16T15:56:22.321Z,4.73
2019-01-16T15:59:16.174Z,4.56
2019-01-16T16:02:02.455Z,4.59
2019-01-16T16:04:56.540Z,4.58
2019-01-16T16:07:37.641Z,4.62
2019-01-16T16:10:36.542Z,4.53
2019-01-16T16:13:20.583Z,4.54
2019-01-16T16:16:08.149Z,4.47
2019-01-16T16:19:02.237Z,4.47
2019-01-16T16:21:52.544Z,4.48
2019-01-16T16:24:43.664Z,4.38
2019-01-16T16:27:44.637Z,4.35
2019-01-16T16:30:25.294Z,4.25
2019-01-16T16:33:03.018Z,4.30
2019-01-16T16:35:50.250Z,4.19
2019-01-16T16:38:36.261Z,3.99
2019-01-16T16:41:32.205Z,4.01
2019-01-16T16:44:22.890Z,4.21
2019-01-16T16:47:18.950Z,4.06
2019-01-16T16:50:12.979Z,3.99
2019-01-16T16:52:59.775Z,3.89
2019-01-16T16:55:46.470Z,3.82
2019-01-16T16:58:33.060Z,3.65
2019-01-16T17:01:20.069Z,3.72
2019-01-16T17:04:13.166Z,3.71
2019-01-16T17:07:10.065Z,3.70
2019-01-16T17:09:56.728Z,3.69
2019-01-16T17:12:49.557Z,3.67
2019-01-16T17:15:39.441Z,3.66
2019-01-16T17:18:15.132Z,3.62
2019-01-16T17:21:02.659Z,3.50
2019-01-16T17:23:53.386Z,3.45
2019-01-16T17:26:42.137Z,3.56
2019-01-16T17:29:32.960Z,3.73
2019-01-16T17:32:28.703Z,3.60
2019-01-16T17:35:17.558Z,3.55
2019-01-16T17:38:14.794Z,3.47
2019-01-16T17:41:17.901Z,3.41
2019-01-16T17:44:01.701Z,3.51
2019-01-16T17:46:53.931Z,3.65
2019-01-16T17:50:00.244Z,3.60
2019-01-16T17:52:47.044Z,3.75
2019-01-16T17:55:41.145Z,3.55
2019-01-16T17:58:28.898Z,3.44
2019-01-16T18:01:11.202Z,3.33
2019-01-16T18:04:00.500Z,3.30
2019-01-16T18:06:42.082Z,3.12
2019-01-16T18:09:27.594Z,2.84
2019-01-16T18:12:15.584Z,2.75
2019-01-16T18:15:02.987Z,2.72
2019-01-16T18:18:02.988Z,2.64
2019-01-16T18:20:45.341Z,2.84
2019-01-16T18:23:33.305Z,2.68
2019-01-16T18:26:19.754Z,2.69
2019-01-16T18:28:59.376Z,2.71
2019-01-16T18:31:53.381Z,2.84
2019-01-16T18:34:40.044Z,2.65
2019-01-16T18:37:43.288Z,2.45
2019-01-16T18:40:19.962Z,2.49
2019-01-16T18:43:11.919Z,2.49
2019-01-16T18:46:02.716Z,2.46
2019-01-16T18:48:40.014Z,2.79
2019-01-16T18:51:40.171Z,2.44
2019-01-16T18:54:26.927Z,2.24
2019-01-16T18:57:13.657Z,2.06
2019-01-16T19:00:01.556Z,1.92
2019-01-16T19:03:08.097Z,1.95
2019-01-16T19:05:44.425Z,2.05
2019-01-16T19:08:44.350Z,2.00
2019-01-16T19:11:31.175Z,2.05
2019-01-16T19:14:25.608Z,2.08
2019-01-16T19:17:31.660Z,2.16
2019-01-16T19:20:21.924Z,2.25
2019-01-16T19:23:08.684Z,2.32
2019-01-16T19:26:00.922Z,2.41
2019-01-16T19:29:04.251Z,2.32
2019-01-16T19:32:01.562Z,2.14
2019-01-16T19:34:50.378Z,2.11
2019-01-16T19:37:41.590Z,2.06
2019-01-16T19:40:32.762Z,1.94
2019-01-16T19:43:19.561Z,1.81
2019-01-16T19:46:10.629Z,1.91
2019-01-16T19:48:55.975Z,2.02
2019-01-16T19:51:44.867Z,1.88
2019-01-16T19:54:42.643Z,1.74
2019-01-16T19:57:33.614Z,1.72
2019-01-16T20:00:15.362Z,1.95
2019-01-16T20:03:02.047Z,1.81
2019-01-16T20:06:05.535Z,1.70
2019-01-16T20:09:05.461Z,1.72
2019-01-16T20:11:52.250Z,1.70
2019-01-16T20:14:32.030Z,1.85
2019-01-16T20:17:23.200Z,1.81
2019-01-16T20:20:23.551Z,1.80
2019-01-16T20:23:11.167Z,1.79
2019-01-16T20:25:58.201Z,1.85
2019-01-16T20:28:48.903Z,1.87
2019-01-16T20:31:55.352Z,1.97
2019-01-16T20:34:34.297Z,2.04
2019-01-16T20:37:20.550Z,1.60
2019-01-16T20:40:08.517Z,1.55
2019-01-16T20:43:01.646Z,1.63
2019-01-16T20:46:01.937Z,1.73
2019-01-16T20:48:43.275Z,1.67
2019-01-16T20:51:40.348Z,1.82
2019-01-16T20:54:34.195Z,1.82
2019-01-16T20:57:20.821Z,1.81
2019-01-16T21:00:07.659Z,1.64
2019-01-16T21:03:04.225Z,1.58
2019-01-16T21:05:51.017Z,1.34
2019-01-16T21:08:37.678Z,1.26
2019-01-16T21:11:31.520Z,1.16
2019-01-16T21:14:12.047Z,1.06
2019-01-16T21:17:15.029Z,0.98
2019-01-16T21:20:05.962Z,0.93
2019-01-16T21:22:47.974Z,0.91
2019-01-16T21:25:42.203Z,0.91
2019-01-16T21:28:42.347Z,0.86
2019-01-16T21:31:39.122Z,0.87
2019-01-16T21:34:26.801Z,0.91
2019-01-16T21:37:20.814Z,0.83
2019-01-16T21:40:07.437Z,0.87
2019-01-16T21:43:06.133Z,0.80
2019-01-16T21:45:52.926Z,0.81
2019-01-16T21:48:48.802Z,0.77
2019-01-16T21:51:35.307Z,0.73
2019-01-16T21:54:33.656Z,0.63
2019-01-16T21:57:30.843Z,0.62
2019-01-16T22:03:03.086Z,0.58
2019-01-16T22:05:54.147Z,0.55
2019-01-16T22:08:32.108Z,0.59
2019-01-16T22:11:11.786Z,0.63
2019-01-16T22:13:58.664Z,0.60
2019-01-16T22:16:52.634Z,0.60
2019-01-16T22:19:52.543Z,0.64
2019-01-16T22:22:39.038Z,0.67
2019-01-16T22:25:20.143Z,0.66
2019-01-16T22:28:20.182Z,0.69
2019-01-16T22:31:07.921Z,0.71
2019-01-16T22:33:54.465Z,0.76
2019-01-16T22:36:37.335Z,0.78
2019-01-16T22:39:25.749Z,0.74
2019-01-16T22:42:06.617Z,0.75
2019-01-16T22:44:48.019Z,0.75
2019-01-16T22:47:31.761Z,0.87
2019-01-16T22:50:18.765Z,0.73
2019-01-16T22:53:05.335Z,0.70
2019-01-16T22:55:48.369Z,0.77
2019-01-16T22:58:39.431Z,0.75
2019-01-16T23:01:17.362Z,0.74
2019-01-16T23:04:17.459Z,0.72
2019-01-16T23:07:05.348Z,0.73
2019-01-16T23:09:43.081Z,0.71
2019-01-16T23:12:29.561Z,0.69
2019-01-16T23:15:32.452Z,0.82
2019-01-16T23:18:13.500Z,1.00
2019-01-16T23:21:10.585Z,1.21
2019-01-16T23:23:57.300Z,1.14
2019-01-16T23:26:57.403Z,1.27
2019-01-16T23:29:36.288Z,1.44
2019-01-16T23:32:23.574Z,1.63
2019-01-16T23:35:03.043Z,1.66
2019-01-16T23:37:51.158Z,1.56
2019-01-16T23:40:39.231Z,1.70
2019-01-16T23:43:30.304Z,1.98
2019-01-16T23:46:24.975Z,2.15
2019-01-16T23:49:15.659Z,2.37
2019-01-16T23:52:00.277Z,2.50
2019-01-16T23:54:48.336Z,2.75
2019-01-16T23:57:45.104Z,3.17
